sensor_id;sensor_type;location;lat;lon;timestamp;P1;durP1;ratioP1;P2;durP2;ratioP2
55672;SDS011;41554;45.366;20.400;2022-12-08T00:01:52;25.17;;;19.40;;
55672;SDS011;41554;45.366;20.400;2022-12-08T00:04:18;24.48;;;16.77;;
55672;SDS011;41554;45.366;20.400;2022-12-08T00:06:44;23.13;;;16.38;;
55672;SDS011;41554;45.366;20.400;2022-12-08T00:09:31;24.92;;;18.52;;
55672;SDS011;41554;45.366;20.400;2022-12-08T00:11:58;26.98;;;15.73;;
55672;SDS011;41554;45.366;20.400;2022-12-08T00:14:28;23.60;;;18.20;;
55672;SDS011;41554;45.366;20.400;2022-12-08T00:16:54;28.27;;;19.83;;
55672;SDS011;41554;45.366;20.400;2022-12-08T00:19:21;20.33;;;15.82;;
55672;SDS011;41554;45.366;20.400;2022-12-08T00:21:47;24.15;;;16.48;;
55672;SDS011;41554;45.366;20.400;2022-12-08T00:24:13;19.50;;;15.85;;
55672;SDS011;41554;45.366;20.400;2022-12-08T00:26:40;31.95;;;19.10;;
55672;SDS011;41554;45.366;20.400;2022-12-08T00:29:06;27.75;;;19.35;;
55672;SDS011;41554;45.366;20.400;2022-12-08T00:31:32;29.52;;;16.05;;
55672;SDS011;41554;45.366;20.400;2022-12-08T00:33:58;27.98;;;17.90;;
55672;SDS011;41554;45.366;20.400;2022-12-08T00:36:24;29.58;;;18.25;;
55672;SDS011;41554;45.366;20.400;2022-12-08T00:38:50;25.10;;;18.95;;
55672;SDS011;41554;45.366;20.400;2022-12-08T00:41:17;23.90;;;17.77;;
55672;SDS011;41554;45.366;20.400;2022-12-08T00:44:05;23.35;;;16.63;;
55672;SDS011;41554;45.366;20.400;2022-12-08T00:46:31;24.42;;;14.75;;
55672;SDS011;41554;45.366;20.400;2022-12-08T00:48:57;22.40;;;15.77;;
55672;SDS011;41554;45.366;20.400;2022-12-08T00:51:23;23.38;;;15.50;;
55672;SDS011;41554;45.366;20.400;2022-12-08T00:53:49;25.70;;;18.08;;
55672;SDS011;41554;45.366;20.400;2022-12-08T00:56:15;21.33;;;16.35;;
55672;SDS011;41554;45.366;20.400;2022-12-08T00:58:41;27.92;;;18.67;;
55672;SDS011;41554;45.366;20.400;2022-12-08T01:01:11;25.15;;;19.75;;
55672;SDS011;41554;45.366;20.400;2022-12-08T01:03:37;32.30;;;20.85;;
55672;SDS011;41554;45.366;20.400;2022-12-08T01:06:03;22.23;;;16.02;;
55672;SDS011;41554;45.366;20.400;2022-12-08T01:08:30;25.83;;;16.05;;
55672;SDS011;41554;45.366;20.400;2022-12-08T01:10:56;25.73;;;16.42;;
55672;SDS011;41554;45.366;20.400;2022-12-08T01:13:27;20.20;;;16.27;;
55672;SDS011;41554;45.366;20.400;2022-12-08T01:15:53;24.88;;;17.27;;
55672;SDS011;41554;45.366;20.400;2022-12-08T01:18:19;29.58;;;22.73;;
55672;SDS011;41554;45.366;20.400;2022-12-08T01:20:45;26.17;;;18.48;;
55672;SDS011;41554;45.366;20.400;2022-12-08T01:26:03;22.33;;;18.33;;
55672;SDS011;41554;45.366;20.400;2022-12-08T01:28:29;25.48;;;18.55;;
55672;SDS011;41554;45.366;20.400;2022-12-08T01:30:56;25.55;;;20.77;;
55672;SDS011;41554;45.366;20.400;2022-12-08T01:33:22;27.15;;;17.27;;
55672;SDS011;41554;45.366;20.400;2022-12-08T01:35:48;30.23;;;20.33;;
55672;SDS011;41554;45.366;20.400;2022-12-08T01:38:14;23.25;;;17.23;;
55672;SDS011;41554;45.366;20.400;2022-12-08T01:40:40;26.48;;;19.23;;
55672;SDS011;41554;45.366;20.400;2022-12-08T01:43:09;26.38;;;18.75;;
55672;SDS011;41554;45.366;20.400;2022-12-08T01:45:37;29.50;;;18.02;;
55672;SDS011;41554;45.366;20.400;2022-12-08T01:48:05;25.83;;;18.48;;
55672;SDS011;41554;45.366;20.400;2022-12-08T01:50:32;32.20;;;19.55;;
55672;SDS011;41554;45.366;20.400;2022-12-08T01:53:00;27.58;;;19.92;;
55672;SDS011;41554;45.366;20.400;2022-12-08T01:55:31;29.98;;;19.63;;
55672;SDS011;41554;45.366;20.400;2022-12-08T01:57:59;23.95;;;16.88;;
55672;SDS011;41554;45.366;20.400;2022-12-08T02:00:28;31.60;;;19.00;;
55672;SDS011;41554;45.366;20.400;2022-12-08T02:02:56;22.58;;;19.27;;
55672;SDS011;41554;45.366;20.400;2022-12-08T02:05:23;27.88;;;20.10;;
55672;SDS011;41554;45.366;20.400;2022-12-08T02:07:50;26.02;;;18.70;;
55672;SDS011;41554;45.366;20.400;2022-12-08T02:10:19;24.02;;;15.50;;
55672;SDS011;41554;45.366;20.400;2022-12-08T02:12:45;26.70;;;18.42;;
55672;SDS011;41554;45.366;20.400;2022-12-08T02:15:13;23.20;;;15.43;;
55672;SDS011;41554;45.366;20.400;2022-12-08T02:20:20;28.00;;;16.05;;
55672;SDS011;41554;45.366;20.400;2022-12-08T02:22:58;26.00;;;16.40;;
55672;SDS011;41554;45.366;20.400;2022-12-08T02:30:25;31.95;;;22.10;;
55672;SDS011;41554;45.366;20.400;2022-12-08T02:40:32;26.00;;;19.30;;
55672;SDS011;41554;45.366;20.400;2022-12-08T02:43:01;31.95;;;21.38;;
55672;SDS011;41554;45.366;20.400;2022-12-08T02:45:29;26.05;;;17.50;;
55672;SDS011;41554;45.366;20.400;2022-12-08T02:47:57;20.58;;;17.25;;
55672;SDS011;41554;45.366;20.400;2022-12-08T02:50:24;28.13;;;17.85;;
55672;SDS011;41554;45.366;20.400;2022-12-08T02:52:50;25.67;;;19.15;;
55672;SDS011;41554;45.366;20.400;2022-12-08T02:55:21;23.05;;;17.30;;
55672;SDS011;41554;45.366;20.400;2022-12-08T03:00:20;21.98;;;18.40;;
55672;SDS011;41554;45.366;20.400;2022-12-08T03:02:52;26.80;;;18.40;;
55672;SDS011;41554;45.366;20.400;2022-12-08T03:08:01;25.77;;;18.42;;
55672;SDS011;41554;45.366;20.400;2022-12-08T03:12:57;21.55;;;15.90;;
55672;SDS011;41554;45.366;20.400;2022-12-08T03:15:26;29.20;;;17.98;;
55672;SDS011;41554;45.366;20.400;2022-12-08T03:17:53;28.17;;;18.00;;
55672;SDS011;41554;45.366;20.400;2022-12-08T03:20:22;31.10;;;21.27;;
55672;SDS011;41554;45.366;20.400;2022-12-08T03:22:49;29.30;;;18.77;;
55672;SDS011;41554;45.366;20.400;2022-12-08T03:25:17;27.25;;;19.52;;
55672;SDS011;41554;45.366;20.400;2022-12-08T03:27:45;22.23;;;18.65;;
55672;SDS011;41554;45.366;20.400;2022-12-08T03:30:11;26.35;;;19.23;;
55672;SDS011;41554;45.366;20.400;2022-12-08T03:32:49;29.88;;;19.13;;
55672;SDS011;41554;45.366;20.400;2022-12-08T03:35:17;27.38;;;19.15;;
55672;SDS011;41554;45.366;20.400;2022-12-08T03:37:43;23.17;;;17.27;;
55672;SDS011;41554;45.366;20.400;2022-12-08T03:40:12;31.35;;;21.80;;
55672;SDS011;41554;45.366;20.400;2022-12-08T03:42:39;22.03;;;16.53;;
55672;SDS011;41554;45.366;20.400;2022-12-08T03:45:05;30.85;;;20.08;;
55672;SDS011;41554;45.366;20.400;2022-12-08T03:47:31;23.75;;;19.33;;
55672;SDS011;41554;45.366;20.400;2022-12-08T03:49:58;25.80;;;21.65;;
55672;SDS011;41554;45.366;20.400;2022-12-08T03:52:24;23.92;;;17.67;;
55672;SDS011;41554;45.366;20.400;2022-12-08T03:54:50;35.88;;;18.85;;
55672;SDS011;41554;45.366;20.400;2022-12-08T03:57:16;29.23;;;20.77;;
55672;SDS011;41554;45.366;20.400;2022-12-08T03:59:42;32.97;;;20.23;;
55672;SDS011;41554;45.366;20.400;2022-12-08T04:02:08;33.47;;;20.92;;
55672;SDS011;41554;45.366;20.400;2022-12-08T04:04:34;31.80;;;19.42;;
55672;SDS011;41554;45.366;20.400;2022-12-08T04:07:00;30.13;;;19.90;;
55672;SDS011;41554;45.366;20.400;2022-12-08T04:09:26;27.67;;;17.95;;
55672;SDS011;41554;45.366;20.400;2022-12-08T04:11:52;27.30;;;20.05;;
55672;SDS011;41554;45.366;20.400;2022-12-08T04:14:18;29.02;;;20.45;;
55672;SDS011;41554;45.366;20.400;2022-12-08T04:16:44;32.03;;;21.88;;
55672;SDS011;41554;45.366;20.400;2022-12-08T04:19:10;28.02;;;19.60;;
55672;SDS011;41554;45.366;20.400;2022-12-08T04:21:36;26.60;;;19.75;;
55672;SDS011;41554;45.366;20.400;2022-12-08T04:24:02;32.65;;;22.02;;
55672;SDS011;41554;45.366;20.400;2022-12-08T04:26:28;28.10;;;20.05;;
55672;SDS011;41554;45.366;20.400;2022-12-08T04:28:54;29.70;;;21.17;;
55672;SDS011;41554;45.366;20.400;2022-12-08T04:31:20;27.05;;;19.25;;
55672;SDS011;41554;45.366;20.400;2022-12-08T04:33:46;31.77;;;22.80;;
55672;SDS011;41554;45.366;20.400;2022-12-08T04:36:12;33.67;;;20.38;;
55672;SDS011;41554;45.366;20.400;2022-12-08T04:38:39;31.23;;;21.17;;
55672;SDS011;41554;45.366;20.400;2022-12-08T04:41:05;34.15;;;21.58;;
55672;SDS011;41554;45.366;20.400;2022-12-08T04:43:31;33.15;;;21.52;;
55672;SDS011;41554;45.366;20.400;2022-12-08T04:45:57;26.83;;;20.23;;
55672;SDS011;41554;45.366;20.400;2022-12-08T04:48:23;23.67;;;18.27;;
55672;SDS011;41554;45.366;20.400;2022-12-08T04:50:49;32.70;;;21.50;;
55672;SDS011;41554;45.366;20.400;2022-12-08T04:53:15;34.22;;;23.15;;
55672;SDS011;41554;45.366;20.400;2022-12-08T04:55:42;36.58;;;22.63;;
55672;SDS011;41554;45.366;20.400;2022-12-08T04:58:12;32.90;;;22.77;;
55672;SDS011;41554;45.366;20.400;2022-12-08T05:00:39;29.90;;;19.50;;
55672;SDS011;41554;45.366;20.400;2022-12-08T05:03:05;24.50;;;18.25;;
55672;SDS011;41554;45.366;20.400;2022-12-08T05:05:31;28.20;;;19.85;;
55672;SDS011;41554;45.366;20.400;2022-12-08T05:07:57;29.88;;;18.42;;
55672;SDS011;41554;45.366;20.400;2022-12-08T05:10:23;28.70;;;17.30;;
55672;SDS011;41554;45.366;20.400;2022-12-08T05:12:49;24.55;;;17.98;;
55672;SDS011;41554;45.366;20.400;2022-12-08T05:15:15;25.17;;;17.23;;
55672;SDS011;41554;45.366;20.400;2022-12-08T05:17:41;25.48;;;17.45;;
55672;SDS011;41554;45.366;20.400;2022-12-08T05:20:07;26.85;;;19.05;;
55672;SDS011;41554;45.366;20.400;2022-12-08T05:22:34;34.53;;;18.02;;
55672;SDS011;41554;45.366;20.400;2022-12-08T05:25:00;23.48;;;16.40;;
55672;SDS011;41554;45.366;20.400;2022-12-08T05:27:26;23.77;;;18.60;;
55672;SDS011;41554;45.366;20.400;2022-12-08T05:29:52;27.38;;;18.50;;
55672;SDS011;41554;45.366;20.400;2022-12-08T05:32:18;28.65;;;20.35;;
55672;SDS011;41554;45.366;20.400;2022-12-08T05:34:44;34.10;;;20.80;;
55672;SDS011;41554;45.366;20.400;2022-12-08T05:37:10;30.55;;;19.45;;
55672;SDS011;41554;45.366;20.400;2022-12-08T05:39:36;26.23;;;20.30;;
55672;SDS011;41554;45.366;20.400;2022-12-08T05:42:02;25.88;;;18.75;;
55672;SDS011;41554;45.366;20.400;2022-12-08T05:44:28;32.08;;;19.85;;
55672;SDS011;41554;45.366;20.400;2022-12-08T05:46:54;29.95;;;19.67;;
55672;SDS011;41554;45.366;20.400;2022-12-08T05:49:20;34.38;;;21.02;;
55672;SDS011;41554;45.366;20.400;2022-12-08T05:51:46;28.83;;;17.63;;
55672;SDS011;41554;45.366;20.400;2022-12-08T05:54:12;25.08;;;18.40;;
55672;SDS011;41554;45.366;20.400;2022-12-08T05:56:38;32.47;;;18.75;;
55672;SDS011;41554;45.366;20.400;2022-12-08T05:59:05;21.00;;;18.23;;
55672;SDS011;41554;45.366;20.400;2022-12-08T06:01:31;21.60;;;15.77;;
55672;SDS011;41554;45.366;20.400;2022-12-08T06:03:58;30.02;;;19.83;;
55672;SDS011;41554;45.366;20.400;2022-12-08T06:06:25;22.50;;;15.40;;
55672;SDS011;41554;45.366;20.400;2022-12-08T06:08:51;23.33;;;16.42;;
55672;SDS011;41554;45.366;20.400;2022-12-08T06:11:18;32.75;;;16.80;;
55672;SDS011;41554;45.366;20.400;2022-12-08T06:13:44;26.65;;;15.98;;
55672;SDS011;41554;45.366;20.400;2022-12-08T06:16:10;34.85;;;18.40;;
55672;SDS011;41554;45.366;20.400;2022-12-08T06:18:36;27.45;;;17.42;;
55672;SDS011;41554;45.366;20.400;2022-12-08T06:21:03;37.65;;;18.45;;
55672;SDS011;41554;45.366;20.400;2022-12-08T06:23:29;21.25;;;17.45;;
55672;SDS011;41554;45.366;20.400;2022-12-08T06:25:59;21.55;;;15.75;;
55672;SDS011;41554;45.366;20.400;2022-12-08T06:28:25;21.50;;;15.13;;
55672;SDS011;41554;45.366;20.400;2022-12-08T06:30:51;21.48;;;15.38;;
55672;SDS011;41554;45.366;20.400;2022-12-08T06:33:17;27.38;;;16.50;;
55672;SDS011;41554;45.366;20.400;2022-12-08T06:35:43;23.02;;;16.10;;
55672;SDS011;41554;45.366;20.400;2022-12-08T06:38:09;25.80;;;15.23;;
55672;SDS011;41554;45.366;20.400;2022-12-08T06:40:35;20.35;;;14.38;;
55672;SDS011;41554;45.366;20.400;2022-12-08T06:43:01;28.58;;;14.10;;
55672;SDS011;41554;45.366;20.400;2022-12-08T06:45:27;22.63;;;14.38;;
55672;SDS011;41554;45.366;20.400;2022-12-08T06:47:53;24.80;;;14.80;;
55672;SDS011;41554;45.366;20.400;2022-12-08T06:50:19;16.52;;;11.50;;
55672;SDS011;41554;45.366;20.400;2022-12-08T06:52:45;35.35;;;20.23;;
55672;SDS011;41554;45.366;20.400;2022-12-08T06:55:11;36.38;;;23.20;;
55672;SDS011;41554;45.366;20.400;2022-12-08T06:57:37;25.85;;;15.73;;
55672;SDS011;41554;45.366;20.400;2022-12-08T07:00:04;27.60;;;16.25;;
55672;SDS011;41554;45.366;20.400;2022-12-08T07:02:31;18.95;;;12.50;;
55672;SDS011;41554;45.366;20.400;2022-12-08T07:04:57;20.70;;;15.07;;
55672;SDS011;41554;45.366;20.400;2022-12-08T07:07:23;19.40;;;14.50;;
55672;SDS011;41554;45.366;20.400;2022-12-08T07:09:49;18.75;;;14.27;;
55672;SDS011;41554;45.366;20.400;2022-12-08T07:12:15;14.85;;;11.60;;
55672;SDS011;41554;45.366;20.400;2022-12-08T07:14:41;16.10;;;12.57;;
55672;SDS011;41554;45.366;20.400;2022-12-08T07:17:07;22.33;;;13.15;;
55672;SDS011;41554;45.366;20.400;2022-12-08T07:19:33;17.35;;;13.70;;
55672;SDS011;41554;45.366;20.400;2022-12-08T07:21:59;21.20;;;11.52;;
55672;SDS011;41554;45.366;20.400;2022-12-08T07:24:25;17.77;;;11.65;;
55672;SDS011;41554;45.366;20.400;2022-12-08T07:26:51;16.23;;;11.77;;
55672;SDS011;41554;45.366;20.400;2022-12-08T07:29:17;13.68;;;12.25;;
55672;SDS011;41554;45.366;20.400;2022-12-08T07:31:43;18.77;;;13.05;;
55672;SDS011;41554;45.366;20.400;2022-12-08T07:34:10;23.55;;;12.77;;
55672;SDS011;41554;45.366;20.400;2022-12-08T07:36:37;18.48;;;12.57;;
55672;SDS011;41554;45.366;20.400;2022-12-08T07:39:03;17.90;;;13.85;;
55672;SDS011;41554;45.366;20.400;2022-12-08T07:41:29;18.25;;;13.63;;
55672;SDS011;41554;45.366;20.400;2022-12-08T07:43:55;18.30;;;13.15;;
55672;SDS011;41554;45.366;20.400;2022-12-08T07:46:22;18.63;;;14.48;;
55672;SDS011;41554;45.366;20.400;2022-12-08T07:48:49;17.85;;;11.23;;
55672;SDS011;41554;45.366;20.400;2022-12-08T07:51:16;14.80;;;11.40;;
55672;SDS011;41554;45.366;20.400;2022-12-08T07:53:43;18.35;;;15.32;;
55672;SDS011;41554;45.366;20.400;2022-12-08T07:56:10;22.27;;;13.15;;
55672;SDS011;41554;45.366;20.400;2022-12-08T07:58:36;22.15;;;11.88;;
55672;SDS011;41554;45.366;20.400;2022-12-08T08:01:02;15.35;;;13.75;;
55672;SDS011;41554;45.366;20.400;2022-12-08T08:03:28;43.75;;;14.25;;
55672;SDS011;41554;45.366;20.400;2022-12-08T08:06:00;19.50;;;15.73;;
55672;SDS011;41554;45.366;20.400;2022-12-08T08:08:26;25.45;;;11.95;;
55672;SDS011;41554;45.366;20.400;2022-12-08T08:10:52;18.17;;;13.15;;
55672;SDS011;41554;45.366;20.400;2022-12-08T08:13:18;19.45;;;14.05;;
55672;SDS011;41554;45.366;20.400;2022-12-08T08:15:44;17.40;;;11.90;;
55672;SDS011;41554;45.366;20.400;2022-12-08T08:18:10;23.77;;;14.23;;
55672;SDS011;41554;45.366;20.400;2022-12-08T08:20:37;18.73;;;12.30;;
55672;SDS011;41554;45.366;20.400;2022-12-08T08:23:03;20.05;;;14.35;;
55672;SDS011;41554;45.366;20.400;2022-12-08T08:25:29;17.15;;;14.55;;
55672;SDS011;41554;45.366;20.400;2022-12-08T08:27:55;22.25;;;14.77;;
55672;SDS011;41554;45.366;20.400;2022-12-08T08:30:21;16.08;;;13.40;;
55672;SDS011;41554;45.366;20.400;2022-12-08T08:32:47;21.67;;;14.75;;
55672;SDS011;41554;45.366;20.400;2022-12-08T08:35:14;17.83;;;13.82;;
55672;SDS011;41554;45.366;20.400;2022-12-08T08:37:40;21.38;;;14.45;;
55672;SDS011;41554;45.366;20.400;2022-12-08T08:40:06;30.50;;;20.63;;
55672;SDS011;41554;45.366;20.400;2022-12-08T08:42:32;23.38;;;16.25;;
55672;SDS011;41554;45.366;20.400;2022-12-08T08:44:58;25.83;;;16.30;;
55672;SDS011;41554;45.366;20.400;2022-12-08T08:47:24;17.85;;;12.38;;
55672;SDS011;41554;45.366;20.400;2022-12-08T08:49:50;20.75;;;14.32;;
55672;SDS011;41554;45.366;20.400;2022-12-08T08:52:16;19.88;;;12.85;;
55672;SDS011;41554;45.366;20.400;2022-12-08T08:54:42;21.90;;;13.07;;
55672;SDS011;41554;45.366;20.400;2022-12-08T08:57:08;26.67;;;13.25;;
55672;SDS011;41554;45.366;20.400;2022-12-08T08:59:34;20.67;;;13.90;;
55672;SDS011;41554;45.366;20.400;2022-12-08T09:02:00;14.55;;;11.00;;
55672;SDS011;41554;45.366;20.400;2022-12-08T09:04:27;18.15;;;13.02;;
55672;SDS011;41554;45.366;20.400;2022-12-08T09:06:53;18.08;;;12.73;;
55672;SDS011;41554;45.366;20.400;2022-12-08T09:09:19;17.77;;;12.40;;
55672;SDS011;41554;45.366;20.400;2022-12-08T09:11:45;15.00;;;12.43;;
55672;SDS011;41554;45.366;20.400;2022-12-08T09:14:11;15.63;;;11.57;;
55672;SDS011;41554;45.366;20.400;2022-12-08T09:16:38;12.88;;;10.85;;
55672;SDS011;41554;45.366;20.400;2022-12-08T09:19:05;22.95;;;16.45;;
55672;SDS011;41554;45.366;20.400;2022-12-08T09:21:31;19.60;;;12.40;;
55672;SDS011;41554;45.366;20.400;2022-12-08T09:23:57;16.90;;;13.60;;
55672;SDS011;41554;45.366;20.400;2022-12-08T09:26:24;18.90;;;13.68;;
55672;SDS011;41554;45.366;20.400;2022-12-08T09:28:50;17.15;;;13.35;;
55672;SDS011;41554;45.366;20.400;2022-12-08T09:31:17;23.98;;;15.40;;
55672;SDS011;41554;45.366;20.400;2022-12-08T09:33:43;14.95;;;13.40;;
55672;SDS011;41554;45.366;20.400;2022-12-08T09:36:09;20.38;;;14.50;;
55672;SDS011;41554;45.366;20.400;2022-12-08T09:38:36;16.80;;;12.90;;
55672;SDS011;41554;45.366;20.400;2022-12-08T09:41:28;22.55;;;13.00;;
55672;SDS011;41554;45.366;20.400;2022-12-08T09:46:47;14.95;;;11.70;;
55672;SDS011;41554;45.366;20.400;2022-12-08T09:49:17;20.27;;;13.50;;
55672;SDS011;41554;45.366;20.400;2022-12-08T09:51:44;20.00;;;14.27;;
55672;SDS011;41554;45.366;20.400;2022-12-08T09:54:24;22.38;;;13.40;;
55672;SDS011;41554;45.366;20.400;2022-12-08T09:56:52;19.75;;;14.98;;
55672;SDS011;41554;45.366;20.400;2022-12-08T09:59:24;17.20;;;12.57;;
55672;SDS011;41554;45.366;20.400;2022-12-08T10:01:52;17.20;;;10.70;;
55672;SDS011;41554;45.366;20.400;2022-12-08T10:04:21;12.63;;;10.30;;
55672;SDS011;41554;45.366;20.400;2022-12-08T10:06:57;15.80;;;10.82;;
55672;SDS011;41554;45.366;20.400;2022-12-08T10:09:47;19.25;;;11.70;;
55672;SDS011;41554;45.366;20.400;2022-12-08T10:12:39;13.00;;;11.32;;
55672;SDS011;41554;45.366;20.400;2022-12-08T10:15:21;16.70;;;12.60;;
55672;SDS011;41554;45.366;20.400;2022-12-08T10:17:51;17.92;;;12.00;;
55672;SDS011;41554;45.366;20.400;2022-12-08T10:20:20;19.90;;;11.13;;
55672;SDS011;41554;45.366;20.400;2022-12-08T10:23:07;19.42;;;12.93;;
55672;SDS011;41554;45.366;20.400;2022-12-08T10:25:35;15.63;;;12.43;;
55672;SDS011;41554;45.366;20.400;2022-12-08T10:28:02;17.02;;;10.88;;
55672;SDS011;41554;45.366;20.400;2022-12-08T10:30:29;20.50;;;15.30;;
55672;SDS011;41554;45.366;20.400;2022-12-08T10:32:56;15.75;;;12.75;;
55672;SDS011;41554;45.366;20.400;2022-12-08T10:35:22;19.83;;;14.15;;
55672;SDS011;41554;45.366;20.400;2022-12-08T10:37:59;16.90;;;13.82;;
55672;SDS011;41554;45.366;20.400;2022-12-08T10:40:26;21.42;;;14.45;;
55672;SDS011;41554;45.366;20.400;2022-12-08T10:42:54;20.20;;;12.00;;
55672;SDS011;41554;45.366;20.400;2022-12-08T10:45:27;16.50;;;10.52;;
55672;SDS011;41554;45.366;20.400;2022-12-08T10:47:56;14.00;;;11.10;;
55672;SDS011;41554;45.366;20.400;2022-12-08T10:50:27;19.65;;;12.50;;
55672;SDS011;41554;45.366;20.400;2022-12-08T10:52:55;13.95;;;9.95;;
55672;SDS011;41554;45.366;20.400;2022-12-08T10:55:21;17.65;;;11.93;;
55672;SDS011;41554;45.366;20.400;2022-12-08T10:57:47;12.07;;;10.60;;
55672;SDS011;41554;45.366;20.400;2022-12-08T11:00:15;18.52;;;12.52;;
55672;SDS011;41554;45.366;20.400;2022-12-08T11:05:24;21.40;;;12.38;;
55672;SDS011;41554;45.366;20.400;2022-12-08T11:07:52;16.58;;;9.63;;
55672;SDS011;41554;45.366;20.400;2022-12-08T11:10:19;13.13;;;11.20;;
55672;SDS011;41554;45.366;20.400;2022-12-08T11:12:47;16.13;;;11.35;;
55672;SDS011;41554;45.366;20.400;2022-12-08T11:15:15;15.63;;;12.38;;
55672;SDS011;41554;45.366;20.400;2022-12-08T11:17:42;14.70;;;10.82;;
55672;SDS011;41554;45.366;20.400;2022-12-08T11:27:30;13.30;;;8.65;;
55672;SDS011;41554;45.366;20.400;2022-12-08T11:29:57;12.13;;;7.82;;
55672;SDS011;41554;45.366;20.400;2022-12-08T11:32:24;9.77;;;7.72;;
55672;SDS011;41554;45.366;20.400;2022-12-08T11:35:01;10.43;;;7.15;;
55672;SDS011;41554;45.366;20.400;2022-12-08T11:37:46;8.02;;;7.22;;
55672;SDS011;41554;45.366;20.400;2022-12-08T11:45:29;16.42;;;9.48;;
55672;SDS011;41554;45.366;20.400;2022-12-08T11:48:02;8.90;;;7.37;;
55672;SDS011;41554;45.366;20.400;2022-12-08T11:53:19;13.20;;;9.82;;
55672;SDS011;41554;45.366;20.400;2022-12-08T11:55:51;11.63;;;8.45;;
55672;SDS011;41554;45.366;20.400;2022-12-08T12:00:51;12.38;;;7.40;;
55672;SDS011;41554;45.366;20.400;2022-12-08T12:14:12;11.13;;;8.40;;
55672;SDS011;41554;45.366;20.400;2022-12-08T12:16:50;14.10;;;10.98;;
55672;SDS011;41554;45.366;20.400;2022-12-08T12:19:19;13.20;;;9.15;;
55672;SDS011;41554;45.366;20.400;2022-12-08T12:21:51;14.20;;;9.40;;
55672;SDS011;41554;45.366;20.400;2022-12-08T12:24:19;12.98;;;7.78;;
55672;SDS011;41554;45.366;20.400;2022-12-08T12:29:16;11.38;;;9.60;;
55672;SDS011;41554;45.366;20.400;2022-12-08T12:31:47;13.43;;;10.07;;
55672;SDS011;41554;45.366;20.400;2022-12-08T12:34:24;14.13;;;10.07;;
55672;SDS011;41554;45.366;20.400;2022-12-08T12:39:21;115.32;;;83.15;;
55672;SDS011;41554;45.366;20.400;2022-12-08T12:41:52;116.57;;;93.05;;
55672;SDS011;41554;45.366;20.400;2022-12-08T12:51:57;60.45;;;47.47;;
55672;SDS011;41554;45.366;20.400;2022-12-08T12:54:24;37.17;;;21.60;;
55672;SDS011;41554;45.366;20.400;2022-12-08T12:56:52;21.10;;;15.80;;
55672;SDS011;41554;45.366;20.400;2022-12-08T13:01:54;23.73;;;14.43;;
55672;SDS011;41554;45.366;20.400;2022-12-08T13:04:33;18.73;;;12.77;;
55672;SDS011;41554;45.366;20.400;2022-12-08T13:07:00;19.35;;;13.70;;
55672;SDS011;41554;45.366;20.400;2022-12-08T13:09:34;24.85;;;14.38;;
55672;SDS011;41554;45.366;20.400;2022-12-08T13:12:08;16.58;;;11.77;;
55672;SDS011;41554;45.366;20.400;2022-12-08T13:14:36;16.98;;;14.50;;
55672;SDS011;41554;45.366;20.400;2022-12-08T13:17:06;19.55;;;13.80;;
55672;SDS011;41554;45.366;20.400;2022-12-08T13:19:35;17.45;;;12.07;;
55672;SDS011;41554;45.366;20.400;2022-12-08T13:22:03;16.13;;;11.75;;
55672;SDS011;41554;45.366;20.400;2022-12-08T13:24:49;19.17;;;12.75;;
55672;SDS011;41554;45.366;20.400;2022-12-08T13:29:41;20.83;;;11.48;;
55672;SDS011;41554;45.366;20.400;2022-12-08T13:37:01;13.98;;;11.45;;
55672;SDS011;41554;45.366;20.400;2022-12-08T13:39:31;17.08;;;12.98;;
55672;SDS011;41554;45.366;20.400;2022-12-08T13:42:01;17.20;;;11.95;;
55672;SDS011;41554;45.366;20.400;2022-12-08T13:44:30;18.63;;;12.07;;
55672;SDS011;41554;45.366;20.400;2022-12-08T13:46:57;18.77;;;12.68;;
55672;SDS011;41554;45.366;20.400;2022-12-08T13:49:25;21.30;;;12.85;;
55672;SDS011;41554;45.366;20.400;2022-12-08T13:51:52;28.20;;;15.75;;
55672;SDS011;41554;45.366;20.400;2022-12-08T13:54:34;16.60;;;12.10;;
55672;SDS011;41554;45.366;20.400;2022-12-08T13:57:03;21.13;;;12.98;;
55672;SDS011;41554;45.366;20.400;2022-12-08T13:59:31;23.38;;;13.98;;
55672;SDS011;41554;45.366;20.400;2022-12-08T14:02:07;23.67;;;17.30;;
55672;SDS011;41554;45.366;20.400;2022-12-08T14:04:42;21.30;;;14.77;;
55672;SDS011;41554;45.366;20.400;2022-12-08T14:07:09;23.58;;;15.40;;
55672;SDS011;41554;45.366;20.400;2022-12-08T14:09:36;27.40;;;16.88;;
55672;SDS011;41554;45.366;20.400;2022-12-08T14:14:32;22.20;;;13.25;;
55672;SDS011;41554;45.366;20.400;2022-12-08T14:17:01;20.80;;;13.82;;
55672;SDS011;41554;45.366;20.400;2022-12-08T14:19:29;23.80;;;16.95;;
55672;SDS011;41554;45.366;20.400;2022-12-08T14:24:28;28.70;;;18.55;;
55672;SDS011;41554;45.366;20.400;2022-12-08T14:26:55;26.30;;;16.63;;
55672;SDS011;41554;45.366;20.400;2022-12-08T14:29:28;21.90;;;13.93;;
55672;SDS011;41554;45.366;20.400;2022-12-08T14:31:56;28.75;;;14.40;;
55672;SDS011;41554;45.366;20.400;2022-12-08T14:34:22;18.55;;;13.63;;
55672;SDS011;41554;45.366;20.400;2022-12-08T14:36:48;21.33;;;15.43;;
55672;SDS011;41554;45.366;20.400;2022-12-08T14:39:23;21.35;;;13.93;;
55672;SDS011;41554;45.366;20.400;2022-12-08T14:41:58;19.40;;;13.30;;
55672;SDS011;41554;45.366;20.400;2022-12-08T14:44:25;15.82;;;12.23;;
55672;SDS011;41554;45.366;20.400;2022-12-08T14:47:02;19.90;;;11.45;;
55672;SDS011;41554;45.366;20.400;2022-12-08T14:49:36;20.65;;;13.45;;
55672;SDS011;41554;45.366;20.400;2022-12-08T14:52:07;16.80;;;11.95;;
55672;SDS011;41554;45.366;20.400;2022-12-08T14:54:34;18.33;;;14.65;;
55672;SDS011;41554;45.366;20.400;2022-12-08T14:57:01;20.13;;;14.27;;
55672;SDS011;41554;45.366;20.400;2022-12-08T14:59:34;25.15;;;13.52;;
55672;SDS011;41554;45.366;20.400;2022-12-08T15:07:21;15.35;;;10.82;;
55672;SDS011;41554;45.366;20.400;2022-12-08T15:09:49;17.55;;;12.63;;
55672;SDS011;41554;45.366;20.400;2022-12-08T15:12:30;23.58;;;12.23;;
55672;SDS011;41554;45.366;20.400;2022-12-08T15:15:01;18.40;;;10.55;;
55672;SDS011;41554;45.366;20.400;2022-12-08T15:19:54;13.63;;;9.52;;
55672;SDS011;41554;45.366;20.400;2022-12-08T15:22:21;14.73;;;10.18;;
55672;SDS011;41554;45.366;20.400;2022-12-08T15:24:48;22.30;;;13.15;;
55672;SDS011;41554;45.366;20.400;2022-12-08T15:27:15;20.38;;;10.23;;
55672;SDS011;41554;45.366;20.400;2022-12-08T15:29:42;14.80;;;11.48;;
55672;SDS011;41554;45.366;20.400;2022-12-08T15:32:08;16.20;;;12.88;;
55672;SDS011;41554;45.366;20.400;2022-12-08T15:34:35;16.67;;;11.27;;
55672;SDS011;41554;45.366;20.400;2022-12-08T15:37:02;13.38;;;10.15;;
55672;SDS011;41554;45.366;20.400;2022-12-08T15:39:35;20.85;;;11.65;;
55672;SDS011;41554;45.366;20.400;2022-12-08T15:42:04;20.35;;;12.35;;
55672;SDS011;41554;45.366;20.400;2022-12-08T15:44:31;18.20;;;12.93;;
55672;SDS011;41554;45.366;20.400;2022-12-08T15:46:57;20.95;;;13.32;;
55672;SDS011;41554;45.366;20.400;2022-12-08T15:49:24;23.85;;;13.52;;